createdAt,value
2023-05-20T00:01:40.020Z,99.90
2023-05-20T00:04:07.279Z,99.90
2023-05-20T00:06:35.388Z,99.90
2023-05-20T00:09:02.365Z,99.90
2023-05-20T00:11:29.615Z,99.90
2023-05-20T00:13:56.477Z,99.90
2023-05-20T00:16:23.603Z,99.90
2023-05-20T00:18:50.665Z,99.90
2023-05-20T00:21:17.593Z,99.90
2023-05-20T00:23:44.629Z,99.90
2023-05-20T00:26:11.778Z,99.90
2023-05-20T00:28:38.522Z,99.90
2023-05-20T00:31:05.241Z,99.90
2023-05-20T00:33:32.047Z,99.90
2023-05-20T00:35:58.946Z,99.90
2023-05-20T00:38:25.706Z,99.90
2023-05-20T00:40:52.791Z,99.90
2023-05-20T00:43:20.709Z,99.90
2023-05-20T00:45:47.802Z,99.90
2023-05-20T00:48:14.785Z,99.90
2023-05-20T00:50:41.775Z,99.90
2023-05-20T00:53:09.089Z,99.90
2023-05-20T00:55:36.030Z,99.90
2023-05-20T00:58:02.961Z,99.90
2023-05-20T01:00:29.645Z,99.90
2023-05-20T01:02:57.363Z,99.90
2023-05-20T01:05:25.344Z,99.90
2023-05-20T01:07:52.333Z,99.90
2023-05-20T01:10:20.241Z,99.90
2023-05-20T01:12:49.069Z,99.90
2023-05-20T01:15:16.572Z,99.90
2023-05-20T01:17:47.516Z,99.90
2023-05-20T01:20:14.958Z,99.90
2023-05-20T01:22:48.472Z,99.90
2023-05-20T01:25:15.342Z,99.90
2023-05-20T01:27:42.277Z,99.90
2023-05-20T01:30:09.670Z,99.90
2023-05-20T01:32:41.304Z,99.90
2023-05-20T01:35:08.746Z,99.90
2023-05-20T01:37:38.447Z,99.90
2023-05-20T01:40:07.200Z,99.90
2023-05-20T01:42:35.944Z,99.90
2023-05-20T01:45:03.209Z,99.90
2023-05-20T01:47:30.153Z,99.90
2023-05-20T01:49:57.119Z,99.90
2023-05-20T01:52:25.980Z,99.90
2023-05-20T01:54:52.858Z,99.90
2023-05-20T01:57:23.573Z,99.90
2023-05-20T01:59:50.248Z,99.90
2023-05-20T02:02:17.743Z,99.90
2023-05-20T02:04:48.969Z,99.90
2023-05-20T02:07:16.353Z,99.90
2023-05-20T02:09:43.398Z,99.90
2023-05-20T02:12:16.430Z,99.90
2023-05-20T02:14:44.198Z,99.90
2023-05-20T02:17:11.039Z,99.90
2023-05-20T02:19:37.682Z,99.90
2023-05-20T02:22:04.801Z,99.90
2023-05-20T02:24:31.921Z,99.90
2023-05-20T02:26:59.105Z,99.90
2023-05-20T02:29:26.043Z,99.90
2023-05-20T02:31:52.997Z,99.90
2023-05-20T02:34:20.593Z,99.90
2023-05-20T02:36:47.552Z,99.90
2023-05-20T02:39:14.528Z,99.90
2023-05-20T02:41:41.522Z,99.90
2023-05-20T02:44:08.185Z,99.90
2023-05-20T02:46:35.750Z,99.90
2023-05-20T02:49:02.714Z,99.90
2023-05-20T02:51:31.942Z,99.90
2023-05-20T02:53:58.893Z,99.90
2023-05-20T02:56:27.134Z,99.90
2023-05-20T02:58:54.228Z,99.90
2023-05-20T03:01:22.027Z,99.90
2023-05-20T03:03:49.130Z,99.90
2023-05-20T03:06:16.149Z,99.90
2023-05-20T03:08:43.236Z,99.90
2023-05-20T03:11:10.374Z,99.90
2023-05-20T03:13:38.100Z,99.90
2023-05-20T03:16:05.490Z,99.90
2023-05-20T03:18:32.213Z,99.90
2023-05-20T03:20:59.198Z,99.90
2023-05-20T03:23:26.059Z,99.90
2023-05-20T03:25:52.985Z,99.90
2023-05-20T03:28:19.945Z,99.90
2023-05-20T03:30:47.806Z,99.90
2023-05-20T03:33:15.000Z,99.90
2023-05-20T03:35:41.930Z,99.90
2023-05-20T03:38:09.010Z,99.90
2023-05-20T03:40:36.004Z,99.90
2023-05-20T03:43:03.058Z,99.90
2023-05-20T03:45:30.333Z,99.90
2023-05-20T03:47:57.198Z,99.90
2023-05-20T03:50:24.928Z,99.90
2023-05-20T03:52:51.694Z,99.90
2023-05-20T03:55:20.484Z,99.90
2023-05-20T03:57:47.456Z,99.90
2023-05-20T04:00:14.617Z,99.90
2023-05-20T04:02:42.386Z,99.90
2023-05-20T04:05:10.320Z,99.90
2023-05-20T04:07:37.388Z,99.90
2023-05-20T04:10:04.589Z,99.90
2023-05-20T04:12:32.713Z,99.90
2023-05-20T04:15:01.213Z,99.90
2023-05-20T04:17:31.538Z,99.90
2023-05-20T04:19:59.822Z,99.90
2023-05-20T04:22:28.119Z,99.90
2023-05-20T04:24:54.804Z,99.90
2023-05-20T04:27:21.897Z,99.90
2023-05-20T04:29:48.893Z,99.90
2023-05-20T04:32:17.352Z,99.90
2023-05-20T04:34:45.165Z,99.90
2023-05-20T04:37:13.335Z,99.90
2023-05-20T04:39:40.420Z,99.90
2023-05-20T04:42:07.403Z,99.90
2023-05-20T04:44:34.521Z,99.90
2023-05-20T04:47:01.518Z,99.90
2023-05-20T04:49:31.133Z,99.90
2023-05-20T04:51:58.542Z,99.90
2023-05-20T04:54:25.513Z,99.90
2023-05-20T04:56:52.508Z,99.90
2023-05-20T04:59:19.263Z,99.90
2023-05-20T05:01:46.324Z,99.90
2023-05-20T05:04:13.281Z,99.90
2023-05-20T05:06:40.520Z,99.90
2023-05-20T05:09:08.087Z,99.90
2023-05-20T05:11:34.847Z,99.90
2023-05-20T05:14:01.925Z,99.90
2023-05-20T05:16:28.989Z,99.90
2023-05-20T05:18:56.047Z,99.90
2023-05-20T05:21:22.995Z,99.90
2023-05-20T05:23:49.664Z,99.90
2023-05-20T05:26:16.808Z,99.90
2023-05-20T05:28:43.766Z,99.90
2023-05-20T05:31:10.438Z,99.90
2023-05-20T05:33:37.494Z,99.90
2023-05-20T05:36:05.505Z,99.90
2023-05-20T05:38:33.006Z,99.90
2023-05-20T05:40:59.825Z,99.90
2023-05-20T05:43:26.962Z,99.90
2023-05-20T05:45:53.943Z,99.90
2023-05-20T05:48:21.661Z,99.90
2023-05-20T05:50:48.482Z,99.90
2023-05-20T05:53:15.510Z,99.90
2023-05-20T05:55:43.432Z,99.90
2023-05-20T05:58:10.413Z,99.90
2023-05-20T06:00:37.161Z,99.90
2023-05-20T06:03:04.385Z,99.90
2023-05-20T06:05:31.708Z,99.90
2023-05-20T06:07:58.796Z,99.90
2023-05-20T06:10:25.553Z,99.90
2023-05-20T06:12:52.458Z,99.90
2023-05-20T06:15:19.551Z,99.90
2023-05-20T06:17:47.564Z,99.90
2023-05-20T06:20:14.478Z,99.90
2023-05-20T06:22:41.526Z,99.90
2023-05-20T06:25:09.375Z,99.90
2023-05-20T06:27:36.472Z,99.90
2023-05-20T06:30:03.511Z,99.90
2023-05-20T06:32:30.621Z,99.90
2023-05-20T06:34:57.643Z,99.90
2023-05-20T06:37:24.590Z,99.90
2023-05-20T06:39:53.851Z,99.90
2023-05-20T06:42:21.464Z,99.90
2023-05-20T06:44:48.317Z,99.90
2023-05-20T06:47:16.083Z,99.90
2023-05-20T06:49:46.488Z,99.90
2023-05-20T06:52:14.353Z,99.90
2023-05-20T06:54:41.767Z,99.90
2023-05-20T06:57:08.996Z,99.90
2023-05-20T06:59:36.689Z,99.90
2023-05-20T07:02:04.083Z,99.90
2023-05-20T07:04:30.878Z,99.90
2023-05-20T07:06:57.870Z,99.70
2023-05-20T07:09:25.000Z,99.90
2023-05-20T07:11:51.935Z,99.90
2023-05-20T07:14:18.997Z,98.90
2023-05-20T07:16:46.262Z,96.60
2023-05-20T07:19:13.036Z,97.10
2023-05-20T07:21:40.123Z,97.10
2023-05-20T07:24:07.031Z,96.50
2023-05-20T07:26:36.305Z,96.20
2023-05-20T07:29:03.957Z,95.40
2023-05-20T07:31:31.436Z,94.90
2023-05-20T07:33:58.489Z,95.40
2023-05-20T07:36:26.958Z,95.10
2023-05-20T07:39:02.632Z,95.60
2023-05-20T07:41:31.340Z,94.90
2023-05-20T07:43:58.135Z,95.40
2023-05-20T07:46:24.977Z,95.70
2023-05-20T07:48:51.924Z,95.00
2023-05-20T07:51:19.045Z,94.20
2023-05-20T07:53:46.208Z,93.80
2023-05-20T07:56:13.250Z,93.40
2023-05-20T07:58:43.637Z,93.10
2023-05-20T08:01:10.276Z,92.50
2023-05-20T08:03:37.213Z,92.20
2023-05-20T08:06:04.245Z,90.70
2023-05-20T08:08:31.165Z,91.40
2023-05-20T08:10:58.229Z,91.00
2023-05-20T08:13:25.332Z,91.10
2023-05-20T08:15:54.992Z,90.70
2023-05-20T08:18:22.201Z,90.90
2023-05-20T08:20:48.895Z,91.30
2023-05-20T08:23:16.119Z,90.50
2023-05-20T08:25:42.984Z,90.40
2023-05-20T08:28:10.057Z,90.30
2023-05-20T08:30:36.688Z,90.00
2023-05-20T08:33:03.820Z,86.00
2023-05-20T08:35:30.918Z,86.70
2023-05-20T08:37:58.193Z,88.10
2023-05-20T08:40:26.778Z,87.20
2023-05-20T08:42:53.622Z,86.60
2023-05-20T08:45:21.651Z,86.00
2023-05-20T08:47:48.941Z,84.00
2023-05-20T08:50:16.353Z,83.50
2023-05-20T08:52:46.326Z,83.80
2023-05-20T08:55:27.027Z,86.00
2023-05-20T08:57:54.710Z,82.20
2023-05-20T09:00:23.619Z,79.50
2023-05-20T09:02:51.846Z,81.00
2023-05-20T09:05:19.355Z,78.70
2023-05-20T09:07:46.147Z,78.90
2023-05-20T09:10:13.338Z,78.20
2023-05-20T09:12:40.276Z,79.60
2023-05-20T09:15:07.498Z,82.30
2023-05-20T09:17:38.177Z,83.80
2023-05-20T09:20:09.638Z,82.00
2023-05-20T09:22:36.850Z,79.90
2023-05-20T09:25:03.857Z,75.10
2023-05-20T09:27:30.717Z,73.80
2023-05-20T09:29:57.839Z,75.00
2023-05-20T09:32:27.922Z,73.40
2023-05-20T09:34:54.778Z,74.00
2023-05-20T09:37:22.027Z,74.60
2023-05-20T09:40:00.815Z,76.00
2023-05-20T09:42:51.509Z,76.50
2023-05-20T09:45:18.628Z,74.70
2023-05-20T09:47:46.044Z,76.90
2023-05-20T09:50:14.983Z,74.80
2023-05-20T09:52:43.506Z,73.70
2023-05-20T09:55:10.536Z,74.70
2023-05-20T09:57:37.871Z,72.60
2023-05-20T10:00:06.219Z,70.70
2023-05-20T10:02:36.627Z,70.00
2023-05-20T10:05:05.782Z,72.10
2023-05-20T10:07:47.698Z,72.10
2023-05-20T10:10:14.565Z,71.50
2023-05-20T10:12:50.509Z,71.50
2023-05-20T10:15:21.652Z,71.00
2023-05-20T10:18:03.857Z,72.20
2023-05-20T10:20:31.688Z,71.80
2023-05-20T10:22:58.779Z,71.10
2023-05-20T10:25:27.258Z,73.60
2023-05-20T10:28:04.528Z,73.10
2023-05-20T10:30:31.385Z,74.20
2023-05-20T10:33:03.143Z,73.70
2023-05-20T10:35:30.599Z,71.80
2023-05-20T10:38:13.259Z,76.50
2023-05-20T10:40:40.782Z,73.50
2023-05-20T10:43:11.478Z,75.20
2023-05-20T10:45:54.807Z,72.00
2023-05-20T10:48:28.203Z,73.10
2023-05-20T10:50:57.076Z,71.70
2023-05-20T10:53:33.433Z,71.10
2023-05-20T10:56:01.547Z,71.00
2023-05-20T10:58:28.310Z,71.20
2023-05-20T11:00:56.098Z,70.00
2023-05-20T11:03:23.654Z,68.80
2023-05-20T11:05:51.137Z,71.20
2023-05-20T11:08:28.424Z,70.20
2023-05-20T11:10:57.002Z,71.10
2023-05-20T11:13:23.859Z,70.70
2023-05-20T11:15:50.922Z,70.40
2023-05-20T11:18:18.935Z,70.70
2023-05-20T11:20:46.564Z,71.00
2023-05-20T11:23:14.246Z,69.10
2023-05-20T11:25:40.992Z,69.70
2023-05-20T11:28:16.887Z,70.90
2023-05-20T11:30:43.683Z,73.70
2023-05-20T11:33:14.907Z,75.40
2023-05-20T11:35:46.123Z,73.00
2023-05-20T11:38:13.052Z,71.70
2023-05-20T11:41:01.342Z,71.70
2023-05-20T11:43:28.049Z,70.80
2023-05-20T11:45:56.098Z,73.60
2023-05-20T11:48:23.570Z,73.90
2023-05-20T11:50:50.504Z,71.80
2023-05-20T11:53:18.750Z,70.10
2023-05-20T11:55:53.894Z,69.30
2023-05-20T11:58:30.635Z,71.20
2023-05-20T12:01:05.784Z,72.50
2023-05-20T12:03:44.722Z,72.80
2023-05-20T12:06:12.129Z,70.70
2023-05-20T12:08:39.084Z,72.60
2023-05-20T12:11:06.141Z,71.30
2023-05-20T12:13:35.072Z,71.90
2023-05-20T12:16:02.483Z,71.80
2023-05-20T12:18:29.344Z,72.00
2023-05-20T12:20:56.339Z,72.30
2023-05-20T12:23:23.409Z,70.20
2023-05-20T12:25:50.455Z,71.60
2023-05-20T12:28:17.805Z,71.50
2023-05-20T12:30:44.493Z,69.90
2023-05-20T12:33:11.171Z,71.10
2023-05-20T12:35:39.249Z,73.20
2023-05-20T12:38:06.866Z,72.70
2023-05-20T12:40:34.456Z,71.60
2023-05-20T12:43:05.260Z,75.90
2023-05-20T12:45:32.239Z,75.90
2023-05-20T12:47:59.590Z,76.30
2023-05-20T12:50:27.317Z,79.00
2023-05-20T12:52:54.223Z,75.90
2023-05-20T12:55:21.237Z,73.40
2023-05-20T12:57:48.249Z,70.20
2023-05-20T13:00:15.189Z,71.90
2023-05-20T13:02:42.709Z,72.30
2023-05-20T13:05:10.412Z,74.70
2023-05-20T13:07:37.330Z,74.20
2023-05-20T13:10:04.496Z,75.20
2023-05-20T13:12:31.372Z,76.20
2023-05-20T13:14:58.381Z,77.50
2023-05-20T13:17:25.544Z,78.60
2023-05-20T13:19:52.487Z,80.80
2023-05-20T13:22:19.555Z,80.80
2023-05-20T13:24:46.641Z,81.60
2023-05-20T13:27:13.675Z,82.50
2023-05-20T13:29:41.899Z,83.30
2023-05-20T13:32:08.922Z,82.10
2023-05-20T13:34:36.098Z,81.90
2023-05-20T13:37:03.044Z,80.70
2023-05-20T13:39:30.126Z,80.00
2023-05-20T13:41:57.151Z,80.00
2023-05-20T13:44:24.169Z,80.30
2023-05-20T13:46:51.217Z,80.10
2023-05-20T13:49:18.433Z,80.70
2023-05-20T13:51:46.239Z,82.40
2023-05-20T13:54:13.234Z,84.30
2023-05-20T13:56:40.378Z,82.30
2023-05-20T13:59:07.277Z,83.30
2023-05-20T14:01:34.397Z,84.90
2023-05-20T14:04:01.561Z,85.10
2023-05-20T14:06:29.515Z,84.70
2023-05-20T14:08:56.601Z,82.80
2023-05-20T14:11:23.389Z,82.40
2023-05-20T14:13:50.129Z,83.40
2023-05-20T14:16:17.186Z,84.30
2023-05-20T14:18:44.220Z,85.80
2023-05-20T14:21:11.713Z,85.80
2023-05-20T14:23:40.932Z,84.90
2023-05-20T14:26:07.766Z,84.30
2023-05-20T14:28:34.768Z,85.60
2023-05-20T14:31:01.526Z,85.20
2023-05-20T14:33:28.408Z,84.30
2023-05-20T14:35:56.272Z,84.90
2023-05-20T14:38:23.483Z,84.40
2023-05-20T14:40:50.375Z,84.60
2023-05-20T14:43:17.461Z,84.80
2023-05-20T14:45:46.610Z,84.20
2023-05-20T14:48:13.604Z,84.00
2023-05-20T14:50:40.782Z,84.50
2023-05-20T14:53:07.667Z,85.50
2023-05-20T14:55:34.782Z,86.00
2023-05-20T14:58:01.811Z,85.20
2023-05-20T15:00:28.481Z,85.60
2023-05-20T15:02:55.883Z,85.80
2023-05-20T15:05:22.754Z,87.20
2023-05-20T15:07:50.979Z,86.80
2023-05-20T15:10:18.106Z,88.10
2023-05-20T15:12:45.093Z,88.60
2023-05-20T15:15:12.204Z,87.50
2023-05-20T15:17:39.298Z,87.90
2023-05-20T15:20:06.381Z,88.60
2023-05-20T15:22:33.308Z,88.20
2023-05-20T15:25:00.564Z,88.10
2023-05-20T15:27:27.361Z,87.70
2023-05-20T15:29:54.407Z,88.40
2023-05-20T15:32:21.604Z,87.20
2023-05-20T15:34:48.520Z,87.10
2023-05-20T15:37:16.249Z,87.10
2023-05-20T15:39:43.041Z,87.70
2023-05-20T15:42:13.860Z,88.00
2023-05-20T15:44:40.989Z,88.60
2023-05-20T15:47:07.875Z,88.30
2023-05-20T15:49:35.769Z,89.60
2023-05-20T15:52:04.232Z,89.20
2023-05-20T15:54:32.659Z,90.50
2023-05-20T15:56:59.936Z,90.20
2023-05-20T15:59:26.821Z,90.40
2023-05-20T16:01:53.859Z,88.80
2023-05-20T16:04:21.080Z,89.30
2023-05-20T16:06:48.001Z,90.30
2023-05-20T16:09:15.002Z,91.40
2023-05-20T16:11:41.787Z,90.70
2023-05-20T16:14:08.657Z,90.30
2023-05-20T16:16:36.370Z,90.20
2023-05-20T16:19:03.275Z,90.40
2023-05-20T16:21:30.347Z,91.10
2023-05-20T16:23:57.286Z,91.00
2023-05-20T16:26:24.559Z,90.70
2023-05-20T16:28:51.377Z,91.00
2023-05-20T16:31:18.183Z,90.50
2023-05-20T16:33:45.086Z,90.60
2023-05-20T16:36:12.198Z,91.00
2023-05-20T16:38:39.233Z,90.90
2023-05-20T16:41:06.606Z,91.10
2023-05-20T16:43:33.552Z,90.90
2023-05-20T16:46:00.714Z,91.10
2023-05-20T16:48:27.758Z,91.10
2023-05-20T16:50:54.802Z,91.20
2023-05-20T16:53:21.902Z,90.90
2023-05-20T16:55:48.889Z,91.30
2023-05-20T16:58:15.999Z,90.80
2023-05-20T17:00:42.829Z,92.10
2023-05-20T17:03:09.669Z,91.60
2023-05-20T17:05:36.835Z,91.80
2023-05-20T17:08:03.775Z,92.10
2023-05-20T17:10:31.059Z,91.90
2023-05-20T17:12:57.854Z,91.70
2023-05-20T17:15:25.555Z,91.90
2023-05-20T17:17:52.384Z,91.90
2023-05-20T17:20:19.625Z,91.90
2023-05-20T17:22:46.437Z,92.20
2023-05-20T17:25:13.515Z,92.60
2023-05-20T17:27:40.476Z,93.10
2023-05-20T17:30:07.724Z,93.40
2023-05-20T17:32:34.678Z,93.80
2023-05-20T17:35:02.020Z,93.80
2023-05-20T17:37:28.729Z,94.50
2023-05-20T17:39:56.116Z,94.40
2023-05-20T17:42:22.894Z,94.20
2023-05-20T17:44:49.961Z,94.50
2023-05-20T17:47:17.004Z,94.60
2023-05-20T17:49:44.864Z,95.00
2023-05-20T17:52:11.951Z,95.50
2023-05-20T17:54:38.857Z,95.80
2023-05-20T17:57:05.954Z,96.10
2023-05-20T17:59:41.516Z,96.20
2023-05-20T18:02:08.260Z,96.40
2023-05-20T18:04:35.431Z,97.00
2023-05-20T18:07:03.922Z,97.10
2023-05-20T18:09:31.092Z,97.10
2023-05-20T18:11:58.079Z,97.20
2023-05-20T18:14:26.615Z,97.30
2023-05-20T18:16:57.492Z,97.00
2023-05-20T18:19:24.732Z,97.30
2023-05-20T18:21:51.815Z,97.30
2023-05-20T18:24:20.362Z,97.40
2023-05-20T18:26:47.346Z,97.80
2023-05-20T18:29:15.255Z,98.10
2023-05-20T18:31:43.500Z,98.20
2023-05-20T18:34:10.649Z,98.40
2023-05-20T18:36:37.745Z,98.90
2023-05-20T18:39:04.889Z,99.20
2023-05-20T18:41:45.848Z,99.70
2023-05-20T18:44:14.440Z,99.80
2023-05-20T18:46:41.448Z,99.90
2023-05-20T18:49:10.193Z,99.90
2023-05-20T18:51:37.699Z,99.90
2023-05-20T18:54:04.985Z,99.90
2023-05-20T18:56:32.509Z,99.90
2023-05-20T18:58:59.610Z,99.90
2023-05-20T19:01:27.077Z,99.90
2023-05-20T19:03:55.140Z,99.90
2023-05-20T19:06:22.021Z,99.90
2023-05-20T19:08:49.479Z,99.90
2023-05-20T19:11:17.646Z,99.90
2023-05-20T19:13:44.596Z,99.90
2023-05-20T19:16:11.799Z,99.90
2023-05-20T19:18:38.752Z,99.90
2023-05-20T19:21:05.907Z,99.90
2023-05-20T19:23:32.777Z,99.90
2023-05-20T19:25:59.896Z,99.90
2023-05-20T19:28:26.873Z,99.90
2023-05-20T19:30:53.785Z,99.90
2023-05-20T19:33:21.168Z,99.90
2023-05-20T19:35:48.145Z,99.90
2023-05-20T19:38:15.154Z,99.90
2023-05-20T19:40:43.268Z,99.90
2023-05-20T19:43:10.005Z,99.90
2023-05-20T19:45:37.254Z,99.90
2023-05-20T19:48:05.452Z,99.90
2023-05-20T19:50:33.088Z,99.90
2023-05-20T19:52:59.987Z,99.90
2023-05-20T19:55:26.943Z,99.90
2023-05-20T19:57:53.926Z,99.90
2023-05-20T20:00:21.624Z,99.90
2023-05-20T20:02:48.760Z,99.90
2023-05-20T20:05:16.151Z,99.90
2023-05-20T20:07:42.948Z,99.90
2023-05-20T20:10:10.561Z,99.90
2023-05-20T20:12:37.442Z,99.90
2023-05-20T20:15:04.743Z,99.90
2023-05-20T20:17:33.599Z,99.90
2023-05-20T20:20:00.900Z,99.90
2023-05-20T20:22:28.191Z,99.90
2023-05-20T20:24:55.153Z,99.90
2023-05-20T20:27:23.846Z,99.90
2023-05-20T20:29:51.221Z,99.90
2023-05-20T20:32:18.597Z,99.90
2023-05-20T20:34:46.008Z,99.90
2023-05-20T20:37:14.969Z,99.90
2023-05-20T20:39:42.847Z,99.90
2023-05-20T20:42:10.533Z,99.90
2023-05-20T20:44:37.308Z,99.90
2023-05-20T20:47:04.703Z,99.90
2023-05-20T20:49:32.125Z,99.90
2023-05-20T20:51:59.300Z,99.90
2023-05-20T20:54:26.397Z,99.90
2023-05-20T20:56:56.562Z,99.90
2023-05-20T20:59:26.380Z,99.90
2023-05-20T21:01:54.003Z,99.90
2023-05-20T21:04:22.355Z,99.90
2023-05-20T21:06:49.305Z,99.90
2023-05-20T21:09:16.435Z,99.90
2023-05-20T21:11:45.280Z,99.90
2023-05-20T21:14:12.757Z,99.90
2023-05-20T21:16:39.777Z,99.90
2023-05-20T21:19:06.599Z,99.90
2023-05-20T21:21:33.638Z,99.90
2023-05-20T21:24:00.861Z,99.90
2023-05-20T21:26:27.677Z,99.90
2023-05-20T21:28:54.367Z,99.90
2023-05-20T21:31:21.187Z,99.90
2023-05-20T21:33:48.091Z,99.90
2023-05-20T21:36:15.182Z,99.90
2023-05-20T21:38:42.125Z,99.90
2023-05-20T21:41:09.200Z,99.90
2023-05-20T21:43:37.350Z,99.90
2023-05-20T21:46:04.217Z,99.90
2023-05-20T21:48:31.144Z,99.90
2023-05-20T21:50:58.190Z,99.90
2023-05-20T21:53:25.272Z,99.90
2023-05-20T21:55:52.390Z,99.90
2023-05-20T21:58:19.474Z,99.90
2023-05-20T22:00:46.156Z,99.90
2023-05-20T22:03:14.661Z,99.90
2023-05-20T22:05:45.942Z,99.90
2023-05-20T22:08:13.000Z,99.90
2023-05-20T22:10:40.196Z,99.90
2023-05-20T22:13:10.975Z,99.90
2023-05-20T22:15:37.868Z,99.90
2023-05-20T22:18:06.798Z,99.90
2023-05-20T22:20:34.752Z,99.90
2023-05-20T22:23:01.702Z,99.90
2023-05-20T22:25:28.963Z,99.90
2023-05-20T22:27:55.833Z,99.90
2023-05-20T22:30:22.624Z,99.90
2023-05-20T22:32:49.575Z,99.90
2023-05-20T22:35:16.708Z,99.90
2023-05-20T22:37:44.456Z,99.90
2023-05-20T22:40:11.538Z,99.90
2023-05-20T22:42:38.474Z,99.90
2023-05-20T22:45:06.580Z,99.90
2023-05-20T22:47:33.427Z,99.90
2023-05-20T22:50:02.660Z,99.90
2023-05-20T22:52:29.680Z,99.90
2023-05-20T22:54:56.980Z,99.90
2023-05-20T22:57:25.070Z,99.90
2023-05-20T22:59:52.153Z,99.90
2023-05-20T23:02:18.984Z,99.90
2023-05-20T23:04:46.072Z,99.90
2023-05-20T23:07:15.019Z,99.90
2023-05-20T23:09:41.899Z,99.90
2023-05-20T23:12:08.950Z,99.90
2023-05-20T23:14:35.941Z,99.90
2023-05-20T23:17:03.042Z,99.90
2023-05-20T23:19:30.072Z,99.90
2023-05-20T23:21:57.001Z,99.90
2023-05-20T23:24:24.124Z,99.90
2023-05-20T23:26:51.180Z,99.90
2023-05-20T23:29:18.155Z,99.90
2023-05-20T23:31:45.219Z,99.90
2023-05-20T23:34:12.329Z,99.90
2023-05-20T23:36:42.106Z,99.90
2023-05-20T23:39:08.805Z,99.90
2023-05-20T23:41:35.854Z,99.90
2023-05-20T23:44:03.979Z,99.90
2023-05-20T23:46:31.418Z,99.90
2023-05-20T23:49:00.189Z,99.90
2023-05-20T23:51:27.944Z,99.90
2023-05-20T23:53:55.075Z,99.90
2023-05-20T23:56:22.343Z,99.90
2023-05-20T23:58:49.320Z,99.90
